sensor_id;sensor_type;location;lat;lon;timestamp;P1;durP1;ratioP1;P2;durP2;ratioP2
56073;SDS011;41950;55.840;37.442;2022-07-29T00:02:19;3.85;;;1.58;;
56073;SDS011;41950;55.840;37.442;2022-07-29T00:04:45;4.03;;;1.50;;
56073;SDS011;41950;55.840;37.442;2022-07-29T00:07:10;4.78;;;1.83;;
56073;SDS011;41950;55.840;37.442;2022-07-29T00:09:36;3.47;;;1.60;;
56073;SDS011;41950;55.840;37.442;2022-07-29T00:12:01;4.95;;;1.63;;
56073;SDS011;41950;55.840;37.442;2022-07-29T00:14:29;4.00;;;1.60;;
56073;SDS011;41950;55.840;37.442;2022-07-29T00:16:55;4.97;;;1.60;;
56073;SDS011;41950;55.840;37.442;2022-07-29T00:19:22;3.72;;;1.60;;
56073;SDS011;41950;55.840;37.442;2022-07-29T00:21:51;4.32;;;1.60;;
56073;SDS011;41950;55.840;37.442;2022-07-29T00:24:17;3.08;;;1.42;;
56073;SDS011;41950;55.840;37.442;2022-07-29T00:26:44;2.50;;;1.50;;
56073;SDS011;41950;55.840;37.442;2022-07-29T00:29:11;2.67;;;1.45;;
56073;SDS011;41950;55.840;37.442;2022-07-29T00:31:36;4.50;;;1.67;;
56073;SDS011;41950;55.840;37.442;2022-07-29T00:34:02;3.45;;;1.40;;
56073;SDS011;41950;55.840;37.442;2022-07-29T00:36:27;5.88;;;2.05;;
56073;SDS011;41950;55.840;37.442;2022-07-29T00:38:53;4.35;;;1.88;;
56073;SDS011;41950;55.840;37.442;2022-07-29T00:41:20;4.72;;;1.55;;
56073;SDS011;41950;55.840;37.442;2022-07-29T00:43:46;4.57;;;1.60;;
56073;SDS011;41950;55.840;37.442;2022-07-29T00:46:12;5.00;;;1.95;;
56073;SDS011;41950;55.840;37.442;2022-07-29T00:48:37;4.65;;;1.60;;
56073;SDS011;41950;55.840;37.442;2022-07-29T00:51:04;2.75;;;1.80;;
56073;SDS011;41950;55.840;37.442;2022-07-29T00:53:31;3.97;;;1.80;;
56073;SDS011;41950;55.840;37.442;2022-07-29T00:55:57;4.57;;;2.10;;
56073;SDS011;41950;55.840;37.442;2022-07-29T00:58:23;4.50;;;1.90;;
56073;SDS011;41950;55.840;37.442;2022-07-29T01:00:50;5.15;;;1.88;;
56073;SDS011;41950;55.840;37.442;2022-07-29T01:03:18;3.40;;;1.80;;
56073;SDS011;41950;55.840;37.442;2022-07-29T01:05:45;3.92;;;2.00;;
56073;SDS011;41950;55.840;37.442;2022-07-29T01:08:15;3.65;;;1.90;;
56073;SDS011;41950;55.840;37.442;2022-07-29T01:10:41;5.00;;;2.08;;
56073;SDS011;41950;55.840;37.442;2022-07-29T01:13:09;5.40;;;2.10;;
56073;SDS011;41950;55.840;37.442;2022-07-29T01:15:42;4.75;;;1.77;;
56073;SDS011;41950;55.840;37.442;2022-07-29T01:18:16;4.30;;;2.22;;
56073;SDS011;41950;55.840;37.442;2022-07-29T01:29:54;5.00;;;2.13;;
56073;SDS011;41950;55.840;37.442;2022-07-29T01:32:23;4.97;;;1.85;;
56073;SDS011;41950;55.840;37.442;2022-07-29T01:34:53;3.63;;;1.80;;
56073;SDS011;41950;55.840;37.442;2022-07-29T01:43:16;3.88;;;1.83;;
56073;SDS011;41950;55.840;37.442;2022-07-29T01:45:53;4.00;;;1.75;;
56073;SDS011;41950;55.840;37.442;2022-07-29T01:51:33;4.10;;;1.98;;
56073;SDS011;41950;55.840;37.442;2022-07-29T01:54:20;5.25;;;1.92;;
56073;SDS011;41950;55.840;37.442;2022-07-29T01:56:51;5.35;;;1.73;;
56073;SDS011;41950;55.840;37.442;2022-07-29T01:59:21;3.42;;;1.88;;
56073;SDS011;41950;55.840;37.442;2022-07-29T02:01:49;3.03;;;1.80;;
56073;SDS011;41950;55.840;37.442;2022-07-29T02:04:20;4.18;;;1.75;;
56073;SDS011;41950;55.840;37.442;2022-07-29T02:06:47;4.45;;;1.98;;
56073;SDS011;41950;55.840;37.442;2022-07-29T02:09:16;4.65;;;1.80;;
56073;SDS011;41950;55.840;37.442;2022-07-29T02:11:48;3.83;;;1.90;;
56073;SDS011;41950;55.840;37.442;2022-07-29T02:14:17;4.13;;;1.73;;
56073;SDS011;41950;55.840;37.442;2022-07-29T02:16:45;5.45;;;2.05;;
56073;SDS011;41950;55.840;37.442;2022-07-29T02:19:14;3.33;;;2.05;;
56073;SDS011;41950;55.840;37.442;2022-07-29T02:21:42;4.25;;;2.30;;
56073;SDS011;41950;55.840;37.442;2022-07-29T02:24:10;5.00;;;2.10;;
56073;SDS011;41950;55.840;37.442;2022-07-29T02:26:38;4.15;;;2.35;;
56073;SDS011;41950;55.840;37.442;2022-07-29T02:29:07;5.15;;;2.20;;
56073;SDS011;41950;55.840;37.442;2022-07-29T02:31:36;4.10;;;2.10;;
56073;SDS011;41950;55.840;37.442;2022-07-29T02:34:05;5.50;;;2.47;;
56073;SDS011;41950;55.840;37.442;2022-07-29T02:36:33;4.03;;;2.47;;
56073;SDS011;41950;55.840;37.442;2022-07-29T02:38:59;5.82;;;2.10;;
56073;SDS011;41950;55.840;37.442;2022-07-29T02:41:33;4.30;;;2.28;;
56073;SDS011;41950;55.840;37.442;2022-07-29T02:44:08;4.70;;;2.10;;
56073;SDS011;41950;55.840;37.442;2022-07-29T02:46:42;4.65;;;2.33;;
56073;SDS011;41950;55.840;37.442;2022-07-29T02:49:30;4.38;;;2.00;;
56073;SDS011;41950;55.840;37.442;2022-07-29T02:52:01;4.20;;;2.30;;
56073;SDS011;41950;55.840;37.442;2022-07-29T02:56:55;2.80;;;1.80;;
56073;SDS011;41950;55.840;37.442;2022-07-29T02:59:26;3.38;;;1.98;;
56073;SDS011;41950;55.840;37.442;2022-07-29T03:01:54;4.90;;;1.73;;
56073;SDS011;41950;55.840;37.442;2022-07-29T03:04:24;3.40;;;1.65;;
56073;SDS011;41950;55.840;37.442;2022-07-29T03:06:51;3.88;;;2.17;;
56073;SDS011;41950;55.840;37.442;2022-07-29T03:09:19;3.78;;;1.80;;
56073;SDS011;41950;55.840;37.442;2022-07-29T03:11:45;3.22;;;1.90;;
56073;SDS011;41950;55.840;37.442;2022-07-29T03:14:11;5.70;;;1.60;;
56073;SDS011;41950;55.840;37.442;2022-07-29T03:16:38;2.95;;;1.70;;
56073;SDS011;41950;55.840;37.442;2022-07-29T03:19:05;4.47;;;1.90;;
56073;SDS011;41950;55.840;37.442;2022-07-29T03:21:31;3.80;;;1.65;;
56073;SDS011;41950;55.840;37.442;2022-07-29T03:23:59;3.85;;;1.50;;
56073;SDS011;41950;55.840;37.442;2022-07-29T03:26:25;5.32;;;1.70;;
56073;SDS011;41950;55.840;37.442;2022-07-29T03:28:52;5.15;;;1.88;;
56073;SDS011;41950;55.840;37.442;2022-07-29T03:31:17;2.85;;;1.50;;
56073;SDS011;41950;55.840;37.442;2022-07-29T03:33:43;6.20;;;1.75;;
56073;SDS011;41950;55.840;37.442;2022-07-29T03:36:09;4.00;;;1.50;;
56073;SDS011;41950;55.840;37.442;2022-07-29T03:38:34;5.07;;;1.63;;
56073;SDS011;41950;55.840;37.442;2022-07-29T03:41:06;3.95;;;1.70;;
56073;SDS011;41950;55.840;37.442;2022-07-29T03:43:37;2.85;;;1.40;;
56073;SDS011;41950;55.840;37.442;2022-07-29T03:46:09;3.42;;;1.77;;
56073;SDS011;41950;55.840;37.442;2022-07-29T03:48:37;3.08;;;1.60;;
56073;SDS011;41950;55.840;37.442;2022-07-29T03:51:07;4.25;;;1.80;;
56073;SDS011;41950;55.840;37.442;2022-07-29T03:53:32;3.78;;;1.70;;
56073;SDS011;41950;55.840;37.442;2022-07-29T03:56:01;3.67;;;1.60;;
56073;SDS011;41950;55.840;37.442;2022-07-29T03:58:28;2.90;;;1.60;;
56073;SDS011;41950;55.840;37.442;2022-07-29T04:00:57;3.92;;;1.75;;
56073;SDS011;41950;55.840;37.442;2022-07-29T04:03:23;4.25;;;1.60;;
56073;SDS011;41950;55.840;37.442;2022-07-29T04:06:03;3.20;;;1.58;;
56073;SDS011;41950;55.840;37.442;2022-07-29T04:08:32;4.15;;;1.45;;
56073;SDS011;41950;55.840;37.442;2022-07-29T04:11:01;4.72;;;1.60;;
56073;SDS011;41950;55.840;37.442;2022-07-29T04:13:28;4.70;;;1.70;;
56073;SDS011;41950;55.840;37.442;2022-07-29T04:15:54;3.83;;;1.52;;
56073;SDS011;41950;55.840;37.442;2022-07-29T04:18:22;4.40;;;1.95;;
56073;SDS011;41950;55.840;37.442;2022-07-29T04:20:50;3.72;;;1.52;;
56073;SDS011;41950;55.840;37.442;2022-07-29T04:23:17;4.25;;;1.50;;
56073;SDS011;41950;55.840;37.442;2022-07-29T04:25:44;4.75;;;1.80;;
56073;SDS011;41950;55.840;37.442;2022-07-29T04:28:09;3.55;;;1.73;;
56073;SDS011;41950;55.840;37.442;2022-07-29T04:30:36;5.07;;;1.38;;
56073;SDS011;41950;55.840;37.442;2022-07-29T04:33:03;3.58;;;1.50;;
56073;SDS011;41950;55.840;37.442;2022-07-29T04:35:37;3.63;;;1.50;;
56073;SDS011;41950;55.840;37.442;2022-07-29T04:38:05;5.78;;;1.60;;
56073;SDS011;41950;55.840;37.442;2022-07-29T04:40:31;4.75;;;1.48;;
56073;SDS011;41950;55.840;37.442;2022-07-29T04:42:59;4.25;;;1.65;;
56073;SDS011;41950;55.840;37.442;2022-07-29T04:45:25;4.75;;;1.60;;
56073;SDS011;41950;55.840;37.442;2022-07-29T04:47:51;4.53;;;2.00;;
56073;SDS011;41950;55.840;37.442;2022-07-29T04:50:17;2.70;;;1.52;;
56073;SDS011;41950;55.840;37.442;2022-07-29T04:52:42;4.78;;;1.65;;
56073;SDS011;41950;55.840;37.442;2022-07-29T04:55:08;4.18;;;1.60;;
56073;SDS011;41950;55.840;37.442;2022-07-29T04:57:36;4.25;;;1.60;;
56073;SDS011;41950;55.840;37.442;2022-07-29T05:00:02;2.33;;;1.30;;
56073;SDS011;41950;55.840;37.442;2022-07-29T05:02:29;3.67;;;1.60;;
56073;SDS011;41950;55.840;37.442;2022-07-29T05:04:55;4.30;;;1.50;;
56073;SDS011;41950;55.840;37.442;2022-07-29T05:07:20;4.45;;;1.63;;
56073;SDS011;41950;55.840;37.442;2022-07-29T05:09:46;3.08;;;1.55;;
56073;SDS011;41950;55.840;37.442;2022-07-29T05:12:12;4.80;;;1.70;;
56073;SDS011;41950;55.840;37.442;2022-07-29T05:14:41;4.65;;;1.63;;
56073;SDS011;41950;55.840;37.442;2022-07-29T05:17:07;3.90;;;1.33;;
56073;SDS011;41950;55.840;37.442;2022-07-29T05:19:32;4.78;;;1.60;;
56073;SDS011;41950;55.840;37.442;2022-07-29T05:21:58;3.63;;;1.55;;
56073;SDS011;41950;55.840;37.442;2022-07-29T05:24:25;5.18;;;1.50;;
56073;SDS011;41950;55.840;37.442;2022-07-29T05:26:53;4.30;;;1.70;;
56073;SDS011;41950;55.840;37.442;2022-07-29T05:29:19;3.47;;;1.80;;
56073;SDS011;41950;55.840;37.442;2022-07-29T05:31:46;3.95;;;1.40;;
56073;SDS011;41950;55.840;37.442;2022-07-29T05:34:13;2.55;;;1.20;;
56073;SDS011;41950;55.840;37.442;2022-07-29T05:36:38;3.65;;;1.33;;
56073;SDS011;41950;55.840;37.442;2022-07-29T05:39:06;3.30;;;1.50;;
56073;SDS011;41950;55.840;37.442;2022-07-29T05:41:32;3.95;;;1.50;;
56073;SDS011;41950;55.840;37.442;2022-07-29T05:43:59;3.53;;;1.38;;
56073;SDS011;41950;55.840;37.442;2022-07-29T05:46:25;3.55;;;1.38;;
56073;SDS011;41950;55.840;37.442;2022-07-29T05:48:50;3.08;;;1.48;;
56073;SDS011;41950;55.840;37.442;2022-07-29T05:51:16;3.38;;;1.30;;
56073;SDS011;41950;55.840;37.442;2022-07-29T05:53:42;3.25;;;1.48;;
56073;SDS011;41950;55.840;37.442;2022-07-29T05:56:09;2.35;;;1.15;;
56073;SDS011;41950;55.840;37.442;2022-07-29T05:58:36;2.88;;;1.30;;
56073;SDS011;41950;55.840;37.442;2022-07-29T06:01:03;4.45;;;1.45;;
56073;SDS011;41950;55.840;37.442;2022-07-29T06:03:31;3.28;;;1.50;;
56073;SDS011;41950;55.840;37.442;2022-07-29T06:05:57;3.38;;;1.30;;
56073;SDS011;41950;55.840;37.442;2022-07-29T06:08:22;3.60;;;1.30;;
56073;SDS011;41950;55.840;37.442;2022-07-29T06:10:49;2.70;;;1.15;;
56073;SDS011;41950;55.840;37.442;2022-07-29T06:13:15;3.67;;;1.50;;
56073;SDS011;41950;55.840;37.442;2022-07-29T06:15:41;3.30;;;1.20;;
56073;SDS011;41950;55.840;37.442;2022-07-29T06:18:07;4.68;;;1.38;;
56073;SDS011;41950;55.840;37.442;2022-07-29T06:20:34;4.70;;;1.35;;
56073;SDS011;41950;55.840;37.442;2022-07-29T06:23:01;3.22;;;1.30;;
56073;SDS011;41950;55.840;37.442;2022-07-29T06:25:29;3.70;;;1.40;;
56073;SDS011;41950;55.840;37.442;2022-07-29T06:27:59;3.92;;;1.38;;
56073;SDS011;41950;55.840;37.442;2022-07-29T06:30:25;2.60;;;1.08;;
56073;SDS011;41950;55.840;37.442;2022-07-29T06:32:51;4.72;;;1.42;;
56073;SDS011;41950;55.840;37.442;2022-07-29T06:35:17;2.65;;;1.30;;
56073;SDS011;41950;55.840;37.442;2022-07-29T06:37:43;4.57;;;1.35;;
56073;SDS011;41950;55.840;37.442;2022-07-29T06:40:09;3.78;;;1.20;;
56073;SDS011;41950;55.840;37.442;2022-07-29T06:42:53;2.95;;;1.08;;
56073;SDS011;41950;55.840;37.442;2022-07-29T06:45:19;3.35;;;1.10;;
56073;SDS011;41950;55.840;37.442;2022-07-29T06:47:45;4.78;;;1.38;;
56073;SDS011;41950;55.840;37.442;2022-07-29T06:50:12;3.10;;;1.40;;
56073;SDS011;41950;55.840;37.442;2022-07-29T06:52:39;2.90;;;1.10;;
56073;SDS011;41950;55.840;37.442;2022-07-29T06:55:06;2.17;;;1.20;;
56073;SDS011;41950;55.840;37.442;2022-07-29T06:57:32;2.40;;;1.10;;
56073;SDS011;41950;55.840;37.442;2022-07-29T06:59:59;2.45;;;1.20;;
56073;SDS011;41950;55.840;37.442;2022-07-29T07:02:27;3.70;;;1.20;;
56073;SDS011;41950;55.840;37.442;2022-07-29T07:04:53;2.63;;;1.20;;
56073;SDS011;41950;55.840;37.442;2022-07-29T07:07:18;2.92;;;1.20;;
56073;SDS011;41950;55.840;37.442;2022-07-29T07:09:45;3.65;;;1.38;;
56073;SDS011;41950;55.840;37.442;2022-07-29T07:12:11;5.53;;;1.30;;
56073;SDS011;41950;55.840;37.442;2022-07-29T07:14:38;3.78;;;1.20;;
56073;SDS011;41950;55.840;37.442;2022-07-29T07:17:06;3.85;;;1.25;;
56073;SDS011;41950;55.840;37.442;2022-07-29T07:19:33;3.15;;;1.23;;
56073;SDS011;41950;55.840;37.442;2022-07-29T07:21:59;3.15;;;1.10;;
56073;SDS011;41950;55.840;37.442;2022-07-29T07:24:24;3.97;;;1.00;;
56073;SDS011;41950;55.840;37.442;2022-07-29T07:26:50;1.95;;;1.00;;
56073;SDS011;41950;55.840;37.442;2022-07-29T07:29:16;2.63;;;0.95;;
56073;SDS011;41950;55.840;37.442;2022-07-29T07:31:43;2.22;;;1.00;;
56073;SDS011;41950;55.840;37.442;2022-07-29T07:34:09;2.35;;;0.98;;
56073;SDS011;41950;55.840;37.442;2022-07-29T07:36:34;2.85;;;0.90;;
56073;SDS011;41950;55.840;37.442;2022-07-29T07:39:02;1.92;;;0.80;;
56073;SDS011;41950;55.840;37.442;2022-07-29T07:41:31;3.47;;;0.90;;
56073;SDS011;41950;55.840;37.442;2022-07-29T07:43:57;2.55;;;0.90;;
56073;SDS011;41950;55.840;37.442;2022-07-29T07:46:22;1.90;;;0.80;;
56073;SDS011;41950;55.840;37.442;2022-07-29T07:48:48;1.83;;;0.90;;
56073;SDS011;41950;55.840;37.442;2022-07-29T07:51:13;2.78;;;1.02;;
56073;SDS011;41950;55.840;37.442;2022-07-29T07:53:40;2.88;;;0.85;;
56073;SDS011;41950;55.840;37.442;2022-07-29T07:56:06;2.92;;;1.20;;
56073;SDS011;41950;55.840;37.442;2022-07-29T07:58:33;1.70;;;0.80;;
56073;SDS011;41950;55.840;37.442;2022-07-29T08:01:00;2.15;;;0.90;;
56073;SDS011;41950;55.840;37.442;2022-07-29T08:03:32;1.95;;;1.00;;
56073;SDS011;41950;55.840;37.442;2022-07-29T08:05:58;2.03;;;0.90;;
56073;SDS011;41950;55.840;37.442;2022-07-29T08:08:23;2.40;;;1.02;;
56073;SDS011;41950;55.840;37.442;2022-07-29T08:10:51;2.88;;;0.90;;
56073;SDS011;41950;55.840;37.442;2022-07-29T08:13:19;2.72;;;1.00;;
56073;SDS011;41950;55.840;37.442;2022-07-29T08:15:50;2.40;;;1.00;;
56073;SDS011;41950;55.840;37.442;2022-07-29T08:18:30;1.70;;;0.90;;
56073;SDS011;41950;55.840;37.442;2022-07-29T08:20:59;2.85;;;1.13;;
56073;SDS011;41950;55.840;37.442;2022-07-29T08:23:25;2.22;;;1.05;;
56073;SDS011;41950;55.840;37.442;2022-07-29T08:25:53;2.15;;;0.95;;
56073;SDS011;41950;55.840;37.442;2022-07-29T08:28:19;1.90;;;0.90;;
56073;SDS011;41950;55.840;37.442;2022-07-29T08:30:45;2.58;;;1.10;;
56073;SDS011;41950;55.840;37.442;2022-07-29T08:33:11;3.30;;;1.23;;
56073;SDS011;41950;55.840;37.442;2022-07-29T08:35:36;3.95;;;1.30;;
56073;SDS011;41950;55.840;37.442;2022-07-29T08:38:05;4.00;;;1.10;;
56073;SDS011;41950;55.840;37.442;2022-07-29T08:40:30;2.33;;;1.00;;
56073;SDS011;41950;55.840;37.442;2022-07-29T08:42:56;2.03;;;0.80;;
56073;SDS011;41950;55.840;37.442;2022-07-29T08:45:22;2.47;;;1.00;;
56073;SDS011;41950;55.840;37.442;2022-07-29T08:47:48;2.35;;;0.90;;
56073;SDS011;41950;55.840;37.442;2022-07-29T08:50:14;2.45;;;0.70;;
56073;SDS011;41950;55.840;37.442;2022-07-29T08:52:40;1.70;;;0.82;;
56073;SDS011;41950;55.840;37.442;2022-07-29T08:55:07;2.33;;;0.85;;
56073;SDS011;41950;55.840;37.442;2022-07-29T08:57:36;2.17;;;0.95;;
56073;SDS011;41950;55.840;37.442;2022-07-29T09:00:05;3.70;;;0.80;;
56073;SDS011;41950;55.840;37.442;2022-07-29T09:02:35;2.75;;;0.80;;
56073;SDS011;41950;55.840;37.442;2022-07-29T09:05:10;3.08;;;1.00;;
56073;SDS011;41950;55.840;37.442;2022-07-29T09:07:36;3.75;;;1.00;;
56073;SDS011;41950;55.840;37.442;2022-07-29T09:10:04;2.03;;;0.80;;
56073;SDS011;41950;55.840;37.442;2022-07-29T09:12:32;2.95;;;0.73;;
56073;SDS011;41950;55.840;37.442;2022-07-29T09:14:58;4.53;;;2.03;;
56073;SDS011;41950;55.840;37.442;2022-07-29T09:20:24;1.48;;;0.70;;
56073;SDS011;41950;55.840;37.442;2022-07-29T09:22:51;1.60;;;0.73;;
56073;SDS011;41950;55.840;37.442;2022-07-29T09:25:38;2.92;;;1.00;;
56073;SDS011;41950;55.840;37.442;2022-07-29T09:28:12;2.28;;;0.75;;
56073;SDS011;41950;55.840;37.442;2022-07-29T09:30:54;2.42;;;0.90;;
56073;SDS011;41950;55.840;37.442;2022-07-29T09:33:24;3.17;;;0.90;;
56073;SDS011;41950;55.840;37.442;2022-07-29T09:36:08;1.95;;;0.80;;
56073;SDS011;41950;55.840;37.442;2022-07-29T09:38:36;3.17;;;1.35;;
56073;SDS011;41950;55.840;37.442;2022-07-29T09:41:03;2.03;;;1.00;;
56073;SDS011;41950;55.840;37.442;2022-07-29T09:43:29;2.22;;;0.90;;
56073;SDS011;41950;55.840;37.442;2022-07-29T09:45:55;2.38;;;1.00;;
56073;SDS011;41950;55.840;37.442;2022-07-29T09:48:25;2.13;;;0.80;;
56073;SDS011;41950;55.840;37.442;2022-07-29T09:50:51;2.67;;;0.80;;
56073;SDS011;41950;55.840;37.442;2022-07-29T09:53:34;2.90;;;0.80;;
56073;SDS011;41950;55.840;37.442;2022-07-29T09:56:02;2.60;;;1.05;;
56073;SDS011;41950;55.840;37.442;2022-07-29T09:58:28;1.52;;;0.80;;
56073;SDS011;41950;55.840;37.442;2022-07-29T10:00:54;2.78;;;0.90;;
56073;SDS011;41950;55.840;37.442;2022-07-29T10:03:21;2.67;;;0.80;;
56073;SDS011;41950;55.840;37.442;2022-07-29T10:06:04;2.33;;;0.90;;
56073;SDS011;41950;55.840;37.442;2022-07-29T10:08:29;2.53;;;1.00;;
56073;SDS011;41950;55.840;37.442;2022-07-29T10:11:08;1.75;;;0.90;;
56073;SDS011;41950;55.840;37.442;2022-07-29T10:13:37;3.78;;;0.90;;
56073;SDS011;41950;55.840;37.442;2022-07-29T10:16:03;2.67;;;0.80;;
56073;SDS011;41950;55.840;37.442;2022-07-29T10:18:30;1.50;;;0.90;;
56073;SDS011;41950;55.840;37.442;2022-07-29T10:20:57;1.33;;;0.63;;
56073;SDS011;41950;55.840;37.442;2022-07-29T10:23:27;1.63;;;0.70;;
56073;SDS011;41950;55.840;37.442;2022-07-29T10:25:55;1.98;;;0.85;;
56073;SDS011;41950;55.840;37.442;2022-07-29T10:28:24;2.25;;;0.73;;
56073;SDS011;41950;55.840;37.442;2022-07-29T10:30:51;2.58;;;0.98;;
56073;SDS011;41950;55.840;37.442;2022-07-29T10:33:32;2.63;;;0.98;;
56073;SDS011;41950;55.840;37.442;2022-07-29T10:36:14;3.72;;;1.02;;
56073;SDS011;41950;55.840;37.442;2022-07-29T10:39:11;2.20;;;1.08;;
56073;SDS011;41950;55.840;37.442;2022-07-29T10:42:19;2.70;;;1.25;;
56073;SDS011;41950;55.840;37.442;2022-07-29T10:44:51;2.55;;;1.00;;
56073;SDS011;41950;55.840;37.442;2022-07-29T10:50:01;2.80;;;1.20;;
56073;SDS011;41950;55.840;37.442;2022-07-29T10:58:15;5.88;;;1.35;;
56073;SDS011;41950;55.840;37.442;2022-07-29T11:00:46;2.28;;;0.98;;
56073;SDS011;41950;55.840;37.442;2022-07-29T11:06:07;1.92;;;0.90;;
56073;SDS011;41950;55.840;37.442;2022-07-29T11:08:33;1.85;;;0.75;;
56073;SDS011;41950;55.840;37.442;2022-07-29T11:13:45;3.55;;;1.20;;
56073;SDS011;41950;55.840;37.442;2022-07-29T11:16:20;2.70;;;1.10;;
56073;SDS011;41950;55.840;37.442;2022-07-29T11:21:38;1.60;;;0.90;;
56073;SDS011;41950;55.840;37.442;2022-07-29T11:24:13;2.15;;;0.90;;
56073;SDS011;41950;55.840;37.442;2022-07-29T11:26:41;2.35;;;0.80;;
56073;SDS011;41950;55.840;37.442;2022-07-29T11:29:16;2.67;;;1.00;;
56073;SDS011;41950;55.840;37.442;2022-07-29T11:31:46;2.50;;;1.10;;
56073;SDS011;41950;55.840;37.442;2022-07-29T11:34:21;1.90;;;0.90;;
56073;SDS011;41950;55.840;37.442;2022-07-29T11:39:33;2.67;;;1.10;;
56073;SDS011;41950;55.840;37.442;2022-07-29T11:44:54;3.33;;;1.17;;
56073;SDS011;41950;55.840;37.442;2022-07-29T11:47:22;2.58;;;0.90;;
56073;SDS011;41950;55.840;37.442;2022-07-29T11:49:52;1.95;;;0.80;;
56073;SDS011;41950;55.840;37.442;2022-07-29T11:52:20;2.90;;;1.08;;
56073;SDS011;41950;55.840;37.442;2022-07-29T11:54:47;2.33;;;0.90;;
56073;SDS011;41950;55.840;37.442;2022-07-29T11:57:18;2.33;;;0.85;;
56073;SDS011;41950;55.840;37.442;2022-07-29T11:59:47;2.50;;;0.88;;
56073;SDS011;41950;55.840;37.442;2022-07-29T12:02:13;2.10;;;0.90;;
56073;SDS011;41950;55.840;37.442;2022-07-29T12:04:53;2.83;;;0.90;;
56073;SDS011;41950;55.840;37.442;2022-07-29T12:07:27;2.22;;;0.70;;
56073;SDS011;41950;55.840;37.442;2022-07-29T12:09:53;1.95;;;1.00;;
56073;SDS011;41950;55.840;37.442;2022-07-29T12:12:19;2.83;;;0.90;;
56073;SDS011;41950;55.840;37.442;2022-07-29T12:14:47;3.08;;;1.10;;
56073;SDS011;41950;55.840;37.442;2022-07-29T12:19:53;3.28;;;0.70;;
56073;SDS011;41950;55.840;37.442;2022-07-29T12:22:29;2.70;;;1.00;;
56073;SDS011;41950;55.840;37.442;2022-07-29T12:25:02;3.47;;;0.90;;
56073;SDS011;41950;55.840;37.442;2022-07-29T12:27:31;4.15;;;1.00;;
56073;SDS011;41950;55.840;37.442;2022-07-29T12:30:02;2.72;;;0.90;;
56073;SDS011;41950;55.840;37.442;2022-07-29T12:32:40;1.92;;;0.88;;
56073;SDS011;41950;55.840;37.442;2022-07-29T12:35:18;2.55;;;0.95;;
56073;SDS011;41950;55.840;37.442;2022-07-29T12:37:46;3.40;;;1.13;;
56073;SDS011;41950;55.840;37.442;2022-07-29T12:40:14;2.70;;;0.82;;
56073;SDS011;41950;55.840;37.442;2022-07-29T12:45:41;2.13;;;0.70;;
56073;SDS011;41950;55.840;37.442;2022-07-29T12:48:17;2.17;;;0.88;;
56073;SDS011;41950;55.840;37.442;2022-07-29T12:50:53;2.97;;;1.15;;
56073;SDS011;41950;55.840;37.442;2022-07-29T12:53:24;3.20;;;0.85;;
56073;SDS011;41950;55.840;37.442;2022-07-29T12:55:52;4.80;;;1.45;;
56073;SDS011;41950;55.840;37.442;2022-07-29T13:06:43;1.75;;;0.80;;
56073;SDS011;41950;55.840;37.442;2022-07-29T13:09:17;1.85;;;0.90;;
56073;SDS011;41950;55.840;37.442;2022-07-29T13:11:45;1.98;;;0.70;;
56073;SDS011;41950;55.840;37.442;2022-07-29T13:14:29;3.17;;;1.45;;
56073;SDS011;41950;55.840;37.442;2022-07-29T13:17:13;2.03;;;0.77;;
56073;SDS011;41950;55.840;37.442;2022-07-29T13:19:44;1.98;;;0.75;;
56073;SDS011;41950;55.840;37.442;2022-07-29T13:22:16;2.50;;;0.80;;
56073;SDS011;41950;55.840;37.442;2022-07-29T13:24:56;2.72;;;0.80;;
56073;SDS011;41950;55.840;37.442;2022-07-29T13:27:27;2.38;;;0.80;;
56073;SDS011;41950;55.840;37.442;2022-07-29T13:29:54;3.60;;;0.80;;
56073;SDS011;41950;55.840;37.442;2022-07-29T13:32:23;2.13;;;0.93;;
56073;SDS011;41950;55.840;37.442;2022-07-29T13:34:50;1.95;;;0.93;;
56073;SDS011;41950;55.840;37.442;2022-07-29T13:37:18;1.75;;;0.82;;
56073;SDS011;41950;55.840;37.442;2022-07-29T13:39:44;2.53;;;0.80;;
56073;SDS011;41950;55.840;37.442;2022-07-29T13:42:11;2.15;;;0.93;;
56073;SDS011;41950;55.840;37.442;2022-07-29T13:44:40;1.92;;;0.70;;
56073;SDS011;41950;55.840;37.442;2022-07-29T13:47:07;3.08;;;0.70;;
56073;SDS011;41950;55.840;37.442;2022-07-29T13:49:34;2.90;;;0.80;;
56073;SDS011;41950;55.840;37.442;2022-07-29T13:52:01;1.83;;;0.70;;
56073;SDS011;41950;55.840;37.442;2022-07-29T13:54:27;2.45;;;0.65;;
56073;SDS011;41950;55.840;37.442;2022-07-29T13:56:53;1.58;;;0.75;;
56073;SDS011;41950;55.840;37.442;2022-07-29T13:59:20;3.05;;;0.98;;
56073;SDS011;41950;55.840;37.442;2022-07-29T14:01:46;3.78;;;1.20;;
56073;SDS011;41950;55.840;37.442;2022-07-29T14:04:11;2.50;;;1.10;;
56073;SDS011;41950;55.840;37.442;2022-07-29T14:06:37;2.92;;;1.00;;
56073;SDS011;41950;55.840;37.442;2022-07-29T14:09:03;2.40;;;0.82;;
56073;SDS011;41950;55.840;37.442;2022-07-29T14:11:35;3.20;;;0.90;;
56073;SDS011;41950;55.840;37.442;2022-07-29T14:14:04;3.20;;;1.02;;
56073;SDS011;41950;55.840;37.442;2022-07-29T14:16:30;2.30;;;1.10;;
56073;SDS011;41950;55.840;37.442;2022-07-29T14:18:55;2.15;;;0.80;;
56073;SDS011;41950;55.840;37.442;2022-07-29T14:21:21;3.00;;;0.90;;
56073;SDS011;41950;55.840;37.442;2022-07-29T14:23:47;2.65;;;0.80;;
56073;SDS011;41950;55.840;37.442;2022-07-29T14:26:12;3.35;;;0.93;;
56073;SDS011;41950;55.840;37.442;2022-07-29T14:28:38;2.20;;;0.90;;
56073;SDS011;41950;55.840;37.442;2022-07-29T14:31:04;12.20;;;1.60;;
56073;SDS011;41950;55.840;37.442;2022-07-29T14:33:29;3.67;;;1.10;;
56073;SDS011;41950;55.840;37.442;2022-07-29T14:35:56;3.35;;;1.20;;
56073;SDS011;41950;55.840;37.442;2022-07-29T14:38:21;3.95;;;1.40;;
56073;SDS011;41950;55.840;37.442;2022-07-29T14:40:47;2.78;;;1.17;;
56073;SDS011;41950;55.840;37.442;2022-07-29T14:43:15;5.82;;;1.27;;
56073;SDS011;41950;55.840;37.442;2022-07-29T14:45:42;3.72;;;1.30;;
56073;SDS011;41950;55.840;37.442;2022-07-29T14:48:08;4.43;;;1.25;;
56073;SDS011;41950;55.840;37.442;2022-07-29T14:50:33;3.17;;;1.20;;
56073;SDS011;41950;55.840;37.442;2022-07-29T14:53:01;2.83;;;1.08;;
56073;SDS011;41950;55.840;37.442;2022-07-29T14:55:28;3.33;;;1.00;;
56073;SDS011;41950;55.840;37.442;2022-07-29T14:57:54;3.13;;;1.00;;
56073;SDS011;41950;55.840;37.442;2022-07-29T15:00:20;2.08;;;0.80;;
56073;SDS011;41950;55.840;37.442;2022-07-29T15:02:47;2.83;;;0.90;;
56073;SDS011;41950;55.840;37.442;2022-07-29T15:05:13;3.10;;;1.15;;
56073;SDS011;41950;55.840;37.442;2022-07-29T15:07:40;3.55;;;1.20;;
56073;SDS011;41950;55.840;37.442;2022-07-29T15:10:06;2.63;;;1.10;;
56073;SDS011;41950;55.840;37.442;2022-07-29T15:12:32;3.30;;;1.00;;
56073;SDS011;41950;55.840;37.442;2022-07-29T15:14:58;4.93;;;1.00;;
56073;SDS011;41950;55.840;37.442;2022-07-29T15:17:25;3.92;;;1.10;;
56073;SDS011;41950;55.840;37.442;2022-07-29T15:19:51;2.90;;;0.88;;
56073;SDS011;41950;55.840;37.442;2022-07-29T15:22:17;2.40;;;0.98;;
56073;SDS011;41950;55.840;37.442;2022-07-29T15:24:45;3.50;;;1.10;;
56073;SDS011;41950;55.840;37.442;2022-07-29T15:27:10;2.50;;;1.10;;
56073;SDS011;41950;55.840;37.442;2022-07-29T15:29:42;4.22;;;1.10;;
56073;SDS011;41950;55.840;37.442;2022-07-29T15:32:10;4.03;;;1.08;;
56073;SDS011;41950;55.840;37.442;2022-07-29T15:34:36;3.25;;;0.95;;
56073;SDS011;41950;55.840;37.442;2022-07-29T15:37:03;5.25;;;1.17;;
56073;SDS011;41950;55.840;37.442;2022-07-29T15:39:30;6.35;;;1.20;;
56073;SDS011;41950;55.840;37.442;2022-07-29T15:41:57;4.03;;;1.33;;